createdAt,value
2018-07-23T00:01:49.451Z,18.70
2018-07-23T00:04:17.549Z,18.60
2018-07-23T00:06:45.986Z,18.60
2018-07-23T00:09:14.094Z,18.60
2018-07-23T00:11:42.161Z,18.50
2018-07-23T00:14:10.364Z,18.60
2018-07-23T00:19:06.419Z,18.40
2018-07-23T00:21:34.931Z,18.40
2018-07-23T00:24:02.988Z,18.40
2018-07-23T00:26:31.069Z,18.50
2018-07-23T00:28:59.162Z,18.40
2018-07-23T00:31:27.234Z,18.40
2018-07-23T00:33:55.325Z,18.30
2018-07-23T00:36:23.402Z,18.30
2018-07-23T00:38:51.478Z,18.10
2018-07-23T00:41:19.550Z,18.10
2018-07-23T00:43:47.622Z,18.10
2018-07-23T00:46:15.702Z,18.00
2018-07-23T00:48:43.789Z,18.00
2018-07-23T00:51:12.198Z,18.00
2018-07-23T00:53:40.290Z,18.10
2018-07-23T00:56:08.372Z,18.10
2018-07-23T00:58:36.470Z,18.10
2018-07-23T01:01:04.534Z,18.10
2018-07-23T01:03:32.599Z,18.00
2018-07-23T01:06:01.038Z,17.90
2018-07-23T01:08:29.202Z,17.80
2018-07-23T01:10:57.282Z,17.70
2018-07-23T01:13:25.447Z,17.70
2018-07-23T01:15:53.522Z,17.60
2018-07-23T01:18:21.682Z,17.70
2018-07-23T01:20:50.078Z,17.60
2018-07-23T01:23:18.226Z,17.60
2018-07-23T01:25:46.322Z,17.60
2018-07-23T01:28:14.430Z,17.50
2018-07-23T01:30:42.526Z,17.50
2018-07-23T01:33:10.638Z,17.50
2018-07-23T01:35:39.026Z,17.50
2018-07-23T01:38:07.102Z,17.60
2018-07-23T01:40:35.202Z,17.60
2018-07-23T01:43:03.316Z,17.50
2018-07-23T01:45:31.394Z,17.60
2018-07-23T01:47:59.510Z,17.50
2018-07-23T01:50:27.586Z,17.60
2018-07-23T01:52:55.650Z,17.60
2018-07-23T01:55:23.834Z,17.60
2018-07-23T01:57:52.201Z,17.70
2018-07-23T02:00:20.290Z,17.70
2018-07-23T02:02:48.376Z,17.70
2018-07-23T02:05:16.478Z,17.70
2018-07-23T02:07:44.574Z,17.70
2018-07-23T02:10:12.643Z,17.60
2018-07-23T02:12:40.731Z,17.50
2018-07-23T02:15:08.787Z,17.40
2018-07-23T02:17:36.890Z,17.40
2018-07-23T02:20:05.370Z,17.40
2018-07-23T02:22:33.442Z,17.40
2018-07-23T02:25:01.515Z,17.40
2018-07-23T02:27:29.610Z,17.30
2018-07-23T02:29:57.691Z,17.40
2018-07-23T02:32:25.776Z,17.40
2018-07-23T02:34:53.843Z,17.40
2018-07-23T02:37:21.930Z,17.40
2018-07-23T02:39:50.114Z,17.40
2018-07-23T02:42:18.509Z,17.30
2018-07-23T02:44:46.586Z,17.30
2018-07-23T02:47:14.667Z,17.30
2018-07-23T02:49:42.794Z,17.30
2018-07-23T02:52:10.916Z,17.30
2018-07-23T02:54:38.987Z,17.20
2018-07-23T02:57:07.198Z,17.20
2018-07-23T02:59:35.305Z,17.20
2018-07-23T03:02:03.355Z,17.20
2018-07-23T03:04:31.486Z,17.10
2018-07-23T03:06:59.580Z,17.10
2018-07-23T03:09:27.636Z,17.10
2018-07-23T03:11:55.738Z,17.00
2018-07-23T03:14:23.810Z,17.00
2018-07-23T03:16:51.890Z,16.90
2018-07-23T03:19:20.301Z,16.90
2018-07-23T03:21:48.487Z,16.90
2018-07-23T03:24:16.458Z,16.90
2018-07-23T03:26:44.767Z,16.90
2018-07-23T03:29:12.914Z,16.90
2018-07-23T03:31:41.003Z,16.90
2018-07-23T03:34:09.073Z,16.80
2018-07-23T03:36:37.142Z,16.80
2018-07-23T03:39:07.342Z,16.80
2018-07-23T03:41:35.425Z,16.70
2018-07-23T03:44:03.495Z,16.70
2018-07-23T03:46:31.562Z,16.60
2018-07-23T03:48:59.917Z,16.60
2018-07-23T03:51:27.998Z,16.60
2018-07-23T03:53:56.086Z,16.60
2018-07-23T03:56:24.196Z,16.60
2018-07-23T03:58:52.287Z,16.60
2018-07-23T04:01:20.390Z,16.60
2018-07-23T04:03:48.758Z,16.70
2018-07-23T04:06:16.853Z,16.70
2018-07-23T04:08:44.996Z,16.70
2018-07-23T04:11:13.078Z,16.70
2018-07-23T04:13:41.262Z,16.70
2018-07-23T04:16:09.322Z,16.70
2018-07-23T04:18:37.406Z,16.70
2018-07-23T04:21:05.638Z,16.70
2018-07-23T04:23:33.723Z,16.70
2018-07-23T04:26:02.230Z,16.70
2018-07-23T04:28:30.298Z,16.70
2018-07-23T04:30:58.370Z,16.70
2018-07-23T04:33:26.462Z,16.70
2018-07-23T04:35:54.554Z,16.70
2018-07-23T04:38:22.626Z,16.70
2018-07-23T04:40:50.971Z,16.70
2018-07-23T04:43:19.238Z,16.70
2018-07-23T04:45:47.325Z,16.70
2018-07-23T04:48:15.441Z,16.70
2018-07-23T04:53:11.417Z,16.70
2018-07-23T04:55:39.811Z,16.70
2018-07-23T04:58:07.996Z,16.70
2018-07-23T05:00:36.146Z,16.80
2018-07-23T05:03:04.243Z,16.80
2018-07-23T05:05:32.321Z,16.90
2018-07-23T05:08:00.442Z,16.90
2018-07-23T05:10:28.854Z,17.00
2018-07-23T05:12:56.987Z,17.00
2018-07-23T05:15:25.080Z,17.10
2018-07-23T05:17:53.158Z,17.10
2018-07-23T05:20:21.230Z,17.10
2018-07-23T05:22:49.312Z,17.10
2018-07-23T05:25:17.722Z,17.30
2018-07-23T05:27:46.026Z,17.40
2018-07-23T05:30:14.122Z,17.40
2018-07-23T05:32:42.227Z,17.50
2018-07-23T05:35:10.302Z,17.60
2018-07-23T05:37:38.373Z,17.70
2018-07-23T05:40:06.951Z,17.80
2018-07-23T05:42:35.019Z,17.90
2018-07-23T05:45:03.111Z,18.00
2018-07-23T05:47:31.436Z,18.10
2018-07-23T05:49:59.524Z,18.20
2018-07-23T05:52:27.610Z,18.30
2018-07-23T05:54:55.694Z,18.40
2018-07-23T05:57:23.841Z,18.50
2018-07-23T05:59:51.929Z,18.60
2018-07-23T06:02:20.314Z,18.70
2018-07-23T06:04:48.564Z,18.80
2018-07-23T06:07:16.657Z,18.90
2018-07-23T06:09:45.011Z,19.00
2018-07-23T06:12:13.098Z,19.10
2018-07-23T06:14:41.281Z,19.20
2018-07-23T06:17:09.605Z,19.30
2018-07-23T06:19:37.720Z,19.40
2018-07-23T06:22:05.861Z,19.50
2018-07-23T06:24:34.050Z,19.60
2018-07-23T06:27:02.158Z,19.70
2018-07-23T06:29:30.259Z,19.80
2018-07-23T06:31:58.641Z,19.90
2018-07-23T06:34:26.868Z,20.00
2018-07-23T06:36:54.992Z,20.10
2018-07-23T06:39:23.330Z,20.30
2018-07-23T06:41:51.619Z,20.40
2018-07-23T06:44:20.214Z,20.50
2018-07-23T06:46:48.688Z,20.60
2018-07-23T06:49:16.779Z,20.70
2018-07-23T06:51:44.865Z,20.70
2018-07-23T06:54:13.195Z,20.80
2018-07-23T06:56:41.302Z,20.90
2018-07-23T06:59:09.382Z,21.00
2018-07-23T07:01:38.114Z,21.10
2018-07-23T07:04:06.197Z,21.30
2018-07-23T07:06:34.283Z,21.30
2018-07-23T07:09:02.655Z,21.40
2018-07-23T07:11:30.738Z,21.50
2018-07-23T07:13:59.094Z,21.60
2018-07-23T07:16:27.482Z,21.70
2018-07-23T07:18:55.924Z,21.70
2018-07-23T07:21:24.135Z,21.80
2018-07-23T07:23:52.562Z,22.00
2018-07-23T07:26:21.826Z,22.00
2018-07-23T07:28:49.906Z,22.10
2018-07-23T07:31:18.290Z,22.20
2018-07-23T07:33:46.394Z,22.30
2018-07-23T07:36:14.474Z,22.40
2018-07-23T07:38:43.260Z,22.40
2018-07-23T07:41:11.426Z,22.50
2018-07-23T07:43:39.600Z,22.60
2018-07-23T07:46:08.122Z,22.70
2018-07-23T07:48:36.254Z,22.80
2018-07-23T07:51:04.316Z,22.90
2018-07-23T07:53:32.432Z,23.00
2018-07-23T07:56:00.504Z,23.10
2018-07-23T07:58:29.112Z,23.10
2018-07-23T08:00:57.678Z,23.20
2018-07-23T08:03:26.578Z,23.20
2018-07-23T08:05:54.727Z,23.40
2018-07-23T08:08:23.130Z,23.50
2018-07-23T08:10:51.265Z,23.60
2018-07-23T08:15:47.597Z,23.70
2018-07-23T08:18:15.618Z,23.80
2018-07-23T08:20:43.715Z,23.90
2018-07-23T08:23:12.043Z,24.00
2018-07-23T08:25:40.144Z,24.10
2018-07-23T08:28:08.434Z,24.10
2018-07-23T08:30:36.949Z,24.30
2018-07-23T08:33:05.061Z,24.40
2018-07-23T08:35:33.142Z,24.50
2018-07-23T08:38:01.542Z,24.70
2018-07-23T08:40:29.647Z,24.80
2018-07-23T08:42:57.755Z,24.80
2018-07-23T08:45:26.150Z,24.90
2018-07-23T08:47:54.214Z,25.00
2018-07-23T08:50:22.326Z,25.10
2018-07-23T08:52:50.782Z,25.20
2018-07-23T08:55:18.980Z,25.20
2018-07-23T08:57:47.097Z,25.30
2018-07-23T09:00:15.207Z,25.50
2018-07-23T09:02:43.332Z,25.60
2018-07-23T09:07:39.622Z,25.60
2018-07-23T09:10:07.706Z,25.70
2018-07-23T09:12:35.858Z,25.80
2018-07-23T09:15:04.662Z,25.80
2018-07-23T09:17:32.794Z,25.90
2018-07-23T09:20:01.225Z,26.00
2018-07-23T09:22:29.737Z,26.10
2018-07-23T09:24:57.829Z,26.20
2018-07-23T09:27:25.890Z,26.20
2018-07-23T09:32:23.950Z,26.60
2018-07-23T09:34:52.263Z,26.70
2018-07-23T09:37:20.676Z,26.80
2018-07-23T09:39:48.793Z,26.80
2018-07-23T09:42:16.842Z,26.90
2018-07-23T09:44:45.238Z,26.90
2018-07-23T09:47:13.294Z,27.00
2018-07-23T09:49:41.379Z,27.20
2018-07-23T09:52:09.715Z,27.30
2018-07-23T09:54:37.806Z,27.50
2018-07-23T09:57:06.090Z,27.60
2018-07-23T09:59:34.412Z,27.70
2018-07-23T10:02:02.519Z,27.80
2018-07-23T10:04:30.615Z,27.90
2018-07-23T10:06:58.918Z,28.00
2018-07-23T10:09:26.986Z,28.00
2018-07-23T10:11:55.107Z,28.20
2018-07-23T10:14:23.502Z,28.30
2018-07-23T10:16:51.578Z,28.40
2018-07-23T10:19:19.698Z,28.40
2018-07-23T10:21:48.122Z,28.50
2018-07-23T10:24:16.914Z,28.60
2018-07-23T10:26:46.321Z,28.70
2018-07-23T10:29:14.691Z,28.80
2018-07-23T10:31:42.778Z,28.80
2018-07-23T10:34:10.834Z,28.80
2018-07-23T10:36:38.918Z,28.90
2018-07-23T10:39:08.134Z,28.90
2018-07-23T10:41:36.384Z,29.00
2018-07-23T10:44:04.975Z,29.00
2018-07-23T10:46:33.039Z,29.00
2018-07-23T10:49:01.342Z,29.20
2018-07-23T10:51:29.454Z,29.30
2018-07-23T10:53:57.655Z,29.40
2018-07-23T10:56:25.779Z,29.60
2018-07-23T10:58:54.211Z,29.70
2018-07-23T11:01:22.310Z,29.70
2018-07-23T11:03:50.416Z,29.80
2018-07-23T11:06:18.563Z,29.90
2018-07-23T11:08:46.635Z,30.00
2018-07-23T11:11:14.724Z,30.00
2018-07-23T11:13:43.164Z,30.10
2018-07-23T11:16:11.274Z,30.20
2018-07-23T11:18:39.348Z,30.40
2018-07-23T11:21:07.447Z,30.40
2018-07-23T11:23:35.535Z,30.40
2018-07-23T11:26:04.614Z,30.40
2018-07-23T11:28:33.060Z,30.50
2018-07-23T11:31:01.191Z,30.60
2018-07-23T11:33:29.368Z,30.80
2018-07-23T11:35:57.749Z,30.70
2018-07-23T11:38:25.894Z,30.60
2018-07-23T11:40:53.970Z,30.60
2018-07-23T11:43:22.888Z,30.60
2018-07-23T11:45:50.994Z,30.60
2018-07-23T11:48:19.106Z,30.70
2018-07-23T11:50:47.209Z,30.70
2018-07-23T11:53:15.319Z,30.80
2018-07-23T11:58:11.632Z,31.00
2018-07-23T12:00:39.718Z,31.20
2018-07-23T12:03:07.789Z,31.50
2018-07-23T12:05:37.439Z,31.50
2018-07-23T12:08:05.766Z,31.50
2018-07-23T12:10:33.843Z,31.40
2018-07-23T12:13:03.061Z,31.50
2018-07-23T12:15:31.155Z,31.50
2018-07-23T12:17:59.496Z,31.40
2018-07-23T12:20:28.067Z,31.50
2018-07-23T12:22:56.241Z,31.70
2018-07-23T12:25:24.326Z,31.80
2018-07-23T12:27:52.619Z,32.00
2018-07-23T12:30:20.688Z,32.10
2018-07-23T12:32:48.755Z,32.20
2018-07-23T12:35:17.911Z,32.20
2018-07-23T12:37:46.059Z,32.20
2018-07-23T12:40:14.303Z,32.30
2018-07-23T12:42:42.761Z,32.40
2018-07-23T12:45:10.846Z,32.60
2018-07-23T12:47:38.923Z,32.50
2018-07-23T12:50:07.003Z,32.60
2018-07-23T12:52:35.135Z,32.60
2018-07-23T12:55:03.146Z,32.60
2018-07-23T12:57:31.232Z,32.60
2018-07-23T13:00:01.348Z,32.40
2018-07-23T13:02:30.968Z,32.30
2018-07-23T13:04:59.396Z,32.50
2018-07-23T13:07:27.482Z,32.70
2018-07-23T13:09:56.595Z,32.90
2018-07-23T13:12:24.902Z,33.00
2018-07-23T13:14:53.777Z,33.10
2018-07-23T13:17:21.839Z,33.10
2018-07-23T13:19:50.184Z,33.20
2018-07-23T13:22:18.262Z,33.30
2018-07-23T13:24:46.368Z,33.30
2018-07-23T13:27:14.711Z,33.30
2018-07-23T13:29:42.805Z,33.30
2018-07-23T13:32:11.009Z,33.20
2018-07-23T13:34:39.333Z,32.90
2018-07-23T13:37:07.418Z,32.80
2018-07-23T13:39:35.483Z,32.50
2018-07-23T13:42:03.798Z,32.60
2018-07-23T13:44:31.917Z,32.70
2018-07-23T13:47:00.000Z,32.90
2018-07-23T13:49:28.369Z,33.10
2018-07-23T13:51:56.452Z,33.30
2018-07-23T13:54:24.628Z,33.50
2018-07-23T13:56:54.400Z,33.80
2018-07-23T13:59:22.454Z,34.00
2018-07-23T14:01:50.541Z,34.10
2018-07-23T14:04:18.925Z,34.20
2018-07-23T14:06:46.998Z,34.10
2018-07-23T14:09:15.754Z,34.20
2018-07-23T14:11:44.504Z,34.30
2018-07-23T14:14:12.809Z,34.30
2018-07-23T14:16:40.951Z,34.30
2018-07-23T14:19:09.340Z,34.40
2018-07-23T14:21:37.653Z,34.60
2018-07-23T14:24:05.973Z,34.70
2018-07-23T14:26:34.366Z,34.80
2018-07-23T14:29:03.027Z,34.80
2018-07-23T14:31:31.086Z,34.90
2018-07-23T14:34:00.017Z,35.00
2018-07-23T14:36:28.249Z,35.20
2018-07-23T14:41:24.732Z,35.60
2018-07-23T14:43:52.862Z,35.80
2018-07-23T14:46:20.954Z,36.00
2018-07-23T14:48:49.877Z,36.20
2018-07-23T14:51:18.557Z,36.50
2018-07-23T14:53:46.914Z,36.70
2018-07-23T14:56:15.578Z,36.80
2018-07-23T14:58:43.838Z,36.70
2018-07-23T15:01:11.903Z,36.80
2018-07-23T15:03:40.671Z,36.80
2018-07-23T15:06:09.981Z,36.40
2018-07-23T15:08:38.900Z,36.30
2018-07-23T15:11:07.338Z,36.10
2018-07-23T15:13:36.862Z,36.10
2018-07-23T15:16:05.088Z,36.40
2018-07-23T15:18:33.515Z,36.50
2018-07-23T15:21:02.990Z,36.90
2018-07-23T15:23:31.219Z,37.20
2018-07-23T15:25:59.798Z,37.50
2018-07-23T15:28:27.936Z,37.70
2018-07-23T15:30:56.097Z,37.40
2018-07-23T15:33:24.698Z,37.30
2018-07-23T15:35:53.127Z,36.90
2018-07-23T15:40:49.392Z,35.60
2018-07-23T15:43:17.454Z,35.30
2018-07-23T15:45:46.836Z,35.50
2018-07-23T15:48:14.934Z,35.80
2018-07-23T15:50:43.054Z,36.30
2018-07-23T15:53:11.236Z,36.30
2018-07-23T15:55:39.535Z,36.50
2018-07-23T15:58:07.678Z,37.20
2018-07-23T16:00:35.760Z,37.90
2018-07-23T16:03:04.164Z,38.40
2018-07-23T16:05:32.269Z,38.30
2018-07-23T16:08:01.081Z,38.40
2018-07-23T16:10:29.450Z,38.90
2018-07-23T16:12:57.527Z,39.40
2018-07-23T16:15:25.614Z,39.90
2018-07-23T16:17:53.983Z,40.40
2018-07-23T16:20:22.144Z,40.90
2018-07-23T16:22:50.289Z,41.10
2018-07-23T16:25:18.812Z,41.30
2018-07-23T16:27:46.884Z,41.40
2018-07-23T16:30:14.962Z,41.50
2018-07-23T16:32:43.333Z,41.90
2018-07-23T16:35:12.383Z,42.20
2018-07-23T16:37:40.534Z,42.20
2018-07-23T16:40:09.394Z,42.30
2018-07-23T16:42:37.493Z,42.50
2018-07-23T16:45:05.594Z,42.60
2018-07-23T16:47:33.945Z,42.60
2018-07-23T16:50:02.130Z,41.80
2018-07-23T16:52:30.686Z,41.00
2018-07-23T16:54:59.146Z,40.20
2018-07-23T16:57:27.341Z,39.10
2018-07-23T16:59:55.510Z,38.40
2018-07-23T17:02:24.071Z,37.70
2018-07-23T17:04:52.157Z,37.10
2018-07-23T17:07:20.587Z,36.60
2018-07-23T17:09:49.013Z,36.10
2018-07-23T17:12:17.181Z,35.80
2018-07-23T17:14:45.281Z,35.60
2018-07-23T17:17:14.490Z,35.40
2018-07-23T17:19:42.533Z,35.10
2018-07-23T17:22:11.113Z,34.80
2018-07-23T17:24:39.386Z,34.80
2018-07-23T17:27:07.498Z,34.60
2018-07-23T17:29:36.271Z,34.30
2018-07-23T17:32:04.410Z,34.00
2018-07-23T17:34:32.506Z,33.70
2018-07-23T17:37:00.611Z,33.70
2018-07-23T17:39:29.090Z,33.40
2018-07-23T17:41:57.163Z,33.30
2018-07-23T17:44:25.293Z,33.30
2018-07-23T17:46:53.683Z,33.20
2018-07-23T17:49:21.741Z,33.10
2018-07-23T17:51:49.835Z,33.10
2018-07-23T17:54:18.109Z,32.90
2018-07-23T17:56:46.213Z,32.80
2018-07-23T17:59:14.297Z,32.80
2018-07-23T18:01:42.729Z,32.60
2018-07-23T18:04:10.822Z,32.40
2018-07-23T18:06:39.916Z,32.40
2018-07-23T18:09:09.841Z,32.40
2018-07-23T18:11:39.278Z,32.30
2018-07-23T18:14:08.014Z,32.20
2018-07-23T18:16:36.976Z,32.20
2018-07-23T18:19:05.258Z,32.10
2018-07-23T18:21:33.384Z,32.00
2018-07-23T18:24:01.483Z,32.00
2018-07-23T18:26:29.554Z,32.00
2018-07-23T18:28:58.336Z,32.00
2018-07-23T18:31:26.954Z,31.90
2018-07-23T18:33:55.074Z,31.80
2018-07-23T18:36:23.180Z,31.70
2018-07-23T18:38:51.584Z,31.60
2018-07-23T18:41:19.744Z,31.50
2018-07-23T18:43:48.101Z,31.40
2018-07-23T18:46:16.274Z,31.50
2018-07-23T18:49:24.329Z,31.40
2018-07-23T18:51:53.568Z,31.30
2018-07-23T18:54:23.199Z,31.20
2018-07-23T18:56:53.141Z,31.20
2018-07-23T18:59:21.975Z,31.10
2018-07-23T19:01:51.145Z,30.90
2018-07-23T19:04:19.616Z,30.90
2018-07-23T19:06:48.293Z,30.80
2018-07-23T19:09:17.853Z,30.70
2018-07-23T19:11:47.110Z,30.60
2018-07-23T19:14:15.882Z,30.50
2018-07-23T19:16:44.411Z,30.40
2018-07-23T19:19:12.561Z,30.30
2018-07-23T19:21:40.917Z,30.20
2018-07-23T19:24:08.993Z,30.00
2018-07-23T19:26:37.136Z,29.90
2018-07-23T19:29:05.578Z,29.90
2018-07-23T19:31:33.730Z,29.80
2018-07-23T19:34:02.763Z,29.70
2018-07-23T19:36:31.293Z,29.70
2018-07-23T19:38:59.831Z,29.50
2018-07-23T19:41:28.478Z,29.40
2018-07-23T19:43:56.658Z,29.30
2018-07-23T19:46:24.738Z,29.20
2018-07-23T19:48:52.831Z,29.20
2018-07-23T19:51:21.161Z,29.10
2018-07-23T19:53:49.375Z,29.10
2018-07-23T19:56:17.428Z,29.00
2018-07-23T19:58:45.802Z,28.80
2018-07-23T20:01:13.854Z,28.70
2018-07-23T20:03:42.010Z,28.70
2018-07-23T20:06:10.425Z,28.60
2018-07-23T20:08:38.505Z,28.50
2018-07-23T20:11:06.945Z,28.40
2018-07-23T20:13:35.341Z,28.40
2018-07-23T20:16:03.474Z,28.30
2018-07-23T20:23:27.581Z,28.10
2018-07-23T20:28:23.931Z,27.90
2018-07-23T20:30:52.010Z,27.80
2018-07-23T20:33:20.159Z,27.70
2018-07-23T20:35:48.502Z,27.60
2018-07-23T20:38:16.601Z,27.50
2018-07-23T20:40:44.658Z,27.30
2018-07-23T20:43:13.147Z,27.30
2018-07-23T20:45:41.249Z,27.10
2018-07-23T20:48:09.290Z,27.00
2018-07-23T20:50:37.764Z,26.90
2018-07-23T20:53:05.856Z,26.70
2018-07-23T20:55:33.950Z,26.60
2018-07-23T20:58:02.278Z,26.50
2018-07-23T21:00:30.529Z,26.40
2018-07-23T21:02:58.564Z,26.40
2018-07-23T21:05:27.011Z,26.40
2018-07-23T21:07:55.090Z,26.40
2018-07-23T21:10:23.282Z,26.40
2018-07-23T21:12:51.737Z,26.40
2018-07-23T21:15:19.842Z,26.30
2018-07-23T21:17:47.946Z,26.30
2018-07-23T21:20:16.056Z,26.30
2018-07-23T21:22:44.210Z,26.30
2018-07-23T21:25:12.329Z,26.30
2018-07-23T21:27:40.414Z,26.30
2018-07-23T21:30:08.642Z,26.20
2018-07-23T21:32:36.715Z,26.20
2018-07-23T21:35:05.375Z,26.20
2018-07-23T21:37:33.438Z,26.10
2018-07-23T21:40:01.572Z,26.00
2018-07-23T21:42:29.929Z,25.90
2018-07-23T21:44:58.103Z,25.80
2018-07-23T21:47:26.177Z,25.80
2018-07-23T21:49:54.353Z,25.70
2018-07-23T21:52:22.417Z,25.70
2018-07-23T21:54:50.479Z,25.60
2018-07-23T21:57:18.833Z,25.50
2018-07-23T21:59:46.893Z,25.40
2018-07-23T22:04:42.827Z,25.20
2018-07-23T22:07:10.936Z,25.20
2018-07-23T22:09:39.505Z,25.20
2018-07-23T22:12:07.641Z,25.20
2018-07-23T22:17:03.899Z,25.20
2018-07-23T22:19:33.029Z,25.20
2018-07-23T22:22:01.222Z,25.10
2018-07-23T22:24:29.306Z,25.00
2018-07-23T22:26:57.366Z,24.80
2018-07-23T22:29:25.416Z,24.80
2018-07-23T22:31:53.497Z,24.80
2018-07-23T22:34:21.853Z,24.70
2018-07-23T22:36:49.929Z,24.80
2018-07-23T22:39:18.029Z,24.70
2018-07-23T22:41:46.357Z,24.60
2018-07-23T22:44:14.399Z,24.50
2018-07-23T22:49:10.414Z,24.50
2018-07-23T22:51:39.614Z,24.50
2018-07-23T22:54:07.738Z,24.50
2018-07-23T22:56:36.082Z,24.50
2018-07-23T22:59:04.106Z,24.60
2018-07-23T23:01:32.180Z,24.50
2018-07-23T23:04:00.250Z,24.40
2018-07-23T23:06:28.325Z,24.40
2018-07-23T23:08:56.421Z,24.30
2018-07-23T23:11:24.782Z,24.30
2018-07-23T23:13:52.898Z,24.30
2018-07-23T23:16:20.949Z,24.20
2018-07-23T23:18:49.308Z,24.20
2018-07-23T23:21:17.383Z,24.10
2018-07-23T23:23:45.474Z,24.00
2018-07-23T23:26:13.607Z,24.00
2018-07-23T23:28:41.696Z,23.90
2018-07-23T23:31:09.750Z,23.80
2018-07-23T23:33:38.143Z,23.80
2018-07-23T23:36:06.295Z,23.80
2018-07-23T23:38:34.383Z,23.70
2018-07-23T23:41:02.470Z,23.60
2018-07-23T23:43:30.506Z,23.50
2018-07-23T23:45:58.577Z,23.40
2018-07-23T23:48:26.638Z,23.30
2018-07-23T23:50:54.717Z,23.10
2018-07-23T23:53:22.766Z,22.90
2018-07-23T23:55:50.830Z,22.90
2018-07-23T23:58:18.925Z,22.90
